sensor_id;sensor_type;location;lat;lon;timestamp;P1;durP1;ratioP1;P2;durP2;ratioP2
18455;SDS011;9357;49.900;8.208;2024-03-22T00:00:19;25.17;;;15.90;;
18455;SDS011;9357;49.900;8.208;2024-03-22T00:01:51;23.33;;;14.73;;
18455;SDS011;9357;49.900;8.208;2024-03-22T00:03:23;22.40;;;14.93;;
18455;SDS011;9357;49.900;8.208;2024-03-22T00:04:55;23.37;;;15.10;;
18455;SDS011;9357;49.900;8.208;2024-03-22T00:06:26;22.50;;;15.10;;
18455;SDS011;9357;49.900;8.208;2024-03-22T00:07:57;22.67;;;14.70;;
18455;SDS011;9357;49.900;8.208;2024-03-22T00:09:29;23.37;;;15.40;;
18455;SDS011;9357;49.900;8.208;2024-03-22T00:11:00;22.27;;;14.43;;
18455;SDS011;9357;49.900;8.208;2024-03-22T00:12:31;21.33;;;14.03;;
18455;SDS011;9357;49.900;8.208;2024-03-22T00:14:03;20.93;;;13.37;;
18455;SDS011;9357;49.900;8.208;2024-03-22T00:15:34;20.03;;;13.03;;
18455;SDS011;9357;49.900;8.208;2024-03-22T00:17:04;20.27;;;13.70;;
18455;SDS011;9357;49.900;8.208;2024-03-22T00:18:38;21.37;;;13.43;;
18455;SDS011;9357;49.900;8.208;2024-03-22T00:20:09;20.77;;;13.50;;
18455;SDS011;9357;49.900;8.208;2024-03-22T00:21:40;20.47;;;14.40;;
18455;SDS011;9357;49.900;8.208;2024-03-22T00:23:12;19.83;;;13.27;;
18455;SDS011;9357;49.900;8.208;2024-03-22T00:24:42;20.57;;;14.33;;
18455;SDS011;9357;49.900;8.208;2024-03-22T00:26:13;24.83;;;14.03;;
18455;SDS011;9357;49.900;8.208;2024-03-22T00:27:45;19.80;;;12.93;;
18455;SDS011;9357;49.900;8.208;2024-03-22T00:29:16;19.33;;;13.67;;
18455;SDS011;9357;49.900;8.208;2024-03-22T00:30:48;22.10;;;14.10;;
18455;SDS011;9357;49.900;8.208;2024-03-22T00:32:19;20.27;;;14.53;;
18455;SDS011;9357;49.900;8.208;2024-03-22T00:33:51;20.43;;;13.57;;
18455;SDS011;9357;49.900;8.208;2024-03-22T00:35:23;21.93;;;14.67;;
18455;SDS011;9357;49.900;8.208;2024-03-22T00:36:54;23.63;;;14.57;;
18455;SDS011;9357;49.900;8.208;2024-03-22T00:38:25;23.90;;;15.80;;
18455;SDS011;9357;49.900;8.208;2024-03-22T00:39:57;25.53;;;15.77;;
18455;SDS011;9357;49.900;8.208;2024-03-22T00:41:28;26.67;;;16.73;;
18455;SDS011;9357;49.900;8.208;2024-03-22T00:42:59;23.23;;;15.23;;
18455;SDS011;9357;49.900;8.208;2024-03-22T00:44:31;25.57;;;16.70;;
18455;SDS011;9357;49.900;8.208;2024-03-22T00:46:02;29.63;;;17.00;;
18455;SDS011;9357;49.900;8.208;2024-03-22T00:47:33;25.80;;;15.80;;
18455;SDS011;9357;49.900;8.208;2024-03-22T00:49:06;26.60;;;16.27;;
18455;SDS011;9357;49.900;8.208;2024-03-22T00:50:37;25.90;;;16.07;;
18455;SDS011;9357;49.900;8.208;2024-03-22T00:52:08;26.97;;;16.63;;
18455;SDS011;9357;49.900;8.208;2024-03-22T00:53:39;24.43;;;16.43;;
18455;SDS011;9357;49.900;8.208;2024-03-22T00:55:10;24.63;;;15.83;;
18455;SDS011;9357;49.900;8.208;2024-03-22T00:56:42;24.97;;;15.03;;
18455;SDS011;9357;49.900;8.208;2024-03-22T00:58:13;22.97;;;14.23;;
18455;SDS011;9357;49.900;8.208;2024-03-22T00:59:44;22.03;;;14.07;;
18455;SDS011;9357;49.900;8.208;2024-03-22T01:01:16;21.20;;;14.27;;
18455;SDS011;9357;49.900;8.208;2024-03-22T01:02:46;19.23;;;13.50;;
18455;SDS011;9357;49.900;8.208;2024-03-22T01:04:19;21.53;;;14.30;;
18455;SDS011;9357;49.900;8.208;2024-03-22T01:05:51;21.43;;;14.07;;
18455;SDS011;9357;49.900;8.208;2024-03-22T01:07:22;23.07;;;15.10;;
18455;SDS011;9357;49.900;8.208;2024-03-22T01:08:53;23.90;;;15.53;;
18455;SDS011;9357;49.900;8.208;2024-03-22T01:10:26;20.57;;;15.10;;
18455;SDS011;9357;49.900;8.208;2024-03-22T01:11:57;23.63;;;15.10;;
18455;SDS011;9357;49.900;8.208;2024-03-22T01:13:28;23.03;;;15.03;;
18455;SDS011;9357;49.900;8.208;2024-03-22T01:15:00;22.80;;;15.13;;
18455;SDS011;9357;49.900;8.208;2024-03-22T01:16:31;23.70;;;15.87;;
18455;SDS011;9357;49.900;8.208;2024-03-22T01:18:02;23.17;;;15.70;;
18455;SDS011;9357;49.900;8.208;2024-03-22T01:19:35;22.00;;;15.00;;
18455;SDS011;9357;49.900;8.208;2024-03-22T01:21:06;24.23;;;15.20;;
18455;SDS011;9357;49.900;8.208;2024-03-22T01:22:37;22.90;;;13.97;;
18455;SDS011;9357;49.900;8.208;2024-03-22T01:24:12;22.13;;;14.07;;
18455;SDS011;9357;49.900;8.208;2024-03-22T01:25:42;22.43;;;13.50;;
18455;SDS011;9357;49.900;8.208;2024-03-22T01:27:16;18.73;;;12.73;;
18455;SDS011;9357;49.900;8.208;2024-03-22T01:28:47;18.17;;;12.53;;
18455;SDS011;9357;49.900;8.208;2024-03-22T01:30:18;19.83;;;13.43;;
18455;SDS011;9357;49.900;8.208;2024-03-22T01:31:50;18.47;;;12.93;;
18455;SDS011;9357;49.900;8.208;2024-03-22T01:33:20;19.73;;;13.67;;
18455;SDS011;9357;49.900;8.208;2024-03-22T01:34:54;20.97;;;12.70;;
18455;SDS011;9357;49.900;8.208;2024-03-22T01:36:24;20.40;;;12.77;;
18455;SDS011;9357;49.900;8.208;2024-03-22T01:37:56;18.13;;;12.03;;
18455;SDS011;9357;49.900;8.208;2024-03-22T01:39:27;19.60;;;12.10;;
18455;SDS011;9357;49.900;8.208;2024-03-22T01:40:59;19.67;;;12.37;;
18455;SDS011;9357;49.900;8.208;2024-03-22T01:42:30;18.30;;;12.53;;
18455;SDS011;9357;49.900;8.208;2024-03-22T01:44:01;19.37;;;13.03;;
18455;SDS011;9357;49.900;8.208;2024-03-22T01:45:33;20.17;;;13.00;;
18455;SDS011;9357;49.900;8.208;2024-03-22T01:47:04;18.53;;;12.93;;
18455;SDS011;9357;49.900;8.208;2024-03-22T01:48:35;20.40;;;13.30;;
18455;SDS011;9357;49.900;8.208;2024-03-22T01:50:08;19.27;;;12.83;;
18455;SDS011;9357;49.900;8.208;2024-03-22T01:51:42;21.53;;;13.10;;
18455;SDS011;9357;49.900;8.208;2024-03-22T01:53:13;20.50;;;12.77;;
18455;SDS011;9357;49.900;8.208;2024-03-22T01:54:45;21.33;;;13.23;;
18455;SDS011;9357;49.900;8.208;2024-03-22T01:56:16;20.77;;;12.80;;
18455;SDS011;9357;49.900;8.208;2024-03-22T01:57:48;22.47;;;13.30;;
18455;SDS011;9357;49.900;8.208;2024-03-22T01:59:20;19.40;;;12.70;;
18455;SDS011;9357;49.900;8.208;2024-03-22T02:00:52;16.63;;;11.90;;
18455;SDS011;9357;49.900;8.208;2024-03-22T02:02:23;17.67;;;11.50;;
18455;SDS011;9357;49.900;8.208;2024-03-22T02:03:54;19.13;;;12.40;;
18455;SDS011;9357;49.900;8.208;2024-03-22T02:05:27;18.07;;;11.70;;
18455;SDS011;9357;49.900;8.208;2024-03-22T02:06:59;18.63;;;12.33;;
18455;SDS011;9357;49.900;8.208;2024-03-22T02:08:30;17.40;;;11.63;;
18455;SDS011;9357;49.900;8.208;2024-03-22T02:10:01;19.20;;;12.00;;
18455;SDS011;9357;49.900;8.208;2024-03-22T02:11:33;19.00;;;11.77;;
18455;SDS011;9357;49.900;8.208;2024-03-22T02:13:06;16.67;;;11.33;;
18455;SDS011;9357;49.900;8.208;2024-03-22T02:14:37;17.73;;;11.50;;
18455;SDS011;9357;49.900;8.208;2024-03-22T02:16:09;18.93;;;11.53;;
18455;SDS011;9357;49.900;8.208;2024-03-22T02:17:40;16.63;;;11.23;;
18455;SDS011;9357;49.900;8.208;2024-03-22T02:19:10;16.80;;;11.67;;
18455;SDS011;9357;49.900;8.208;2024-03-22T02:20:44;16.93;;;10.83;;
18455;SDS011;9357;49.900;8.208;2024-03-22T02:22:14;20.57;;;11.97;;
18455;SDS011;9357;49.900;8.208;2024-03-22T02:23:47;17.90;;;10.60;;
18455;SDS011;9357;49.900;8.208;2024-03-22T02:25:18;18.43;;;11.43;;
18455;SDS011;9357;49.900;8.208;2024-03-22T02:26:50;20.60;;;11.50;;
18455;SDS011;9357;49.900;8.208;2024-03-22T02:28:20;23.30;;;13.50;;
18455;SDS011;9357;49.900;8.208;2024-03-22T02:29:52;21.57;;;13.17;;
18455;SDS011;9357;49.900;8.208;2024-03-22T02:31:23;19.87;;;12.53;;
18455;SDS011;9357;49.900;8.208;2024-03-22T02:32:55;21.97;;;13.17;;
18455;SDS011;9357;49.900;8.208;2024-03-22T02:34:26;21.37;;;12.67;;
18455;SDS011;9357;49.900;8.208;2024-03-22T02:35:57;18.90;;;12.57;;
18455;SDS011;9357;49.900;8.208;2024-03-22T02:37:29;19.40;;;13.37;;
18455;SDS011;9357;49.900;8.208;2024-03-22T02:39:03;21.13;;;12.83;;
18455;SDS011;9357;49.900;8.208;2024-03-22T02:40:35;20.63;;;12.07;;
18455;SDS011;9357;49.900;8.208;2024-03-22T02:42:06;18.90;;;11.90;;
18455;SDS011;9357;49.900;8.208;2024-03-22T02:43:37;20.73;;;12.70;;
18455;SDS011;9357;49.900;8.208;2024-03-22T02:45:09;20.87;;;12.67;;
18455;SDS011;9357;49.900;8.208;2024-03-22T02:46:40;21.83;;;12.07;;
18455;SDS011;9357;49.900;8.208;2024-03-22T02:48:11;19.13;;;12.00;;
18455;SDS011;9357;49.900;8.208;2024-03-22T02:49:42;18.83;;;12.07;;
18455;SDS011;9357;49.900;8.208;2024-03-22T02:51:13;15.93;;;11.23;;
18455;SDS011;9357;49.900;8.208;2024-03-22T02:52:45;18.20;;;11.63;;
18455;SDS011;9357;49.900;8.208;2024-03-22T02:54:18;22.03;;;11.93;;
18455;SDS011;9357;49.900;8.208;2024-03-22T02:55:48;18.43;;;12.00;;
18455;SDS011;9357;49.900;8.208;2024-03-22T02:57:20;18.97;;;12.37;;
18455;SDS011;9357;49.900;8.208;2024-03-22T02:58:51;20.43;;;12.27;;
18455;SDS011;9357;49.900;8.208;2024-03-22T03:00:22;20.33;;;11.93;;
18455;SDS011;9357;49.900;8.208;2024-03-22T03:01:54;19.10;;;11.67;;
18455;SDS011;9357;49.900;8.208;2024-03-22T03:03:25;19.87;;;11.80;;
18455;SDS011;9357;49.900;8.208;2024-03-22T03:04:57;18.67;;;11.20;;
18455;SDS011;9357;49.900;8.208;2024-03-22T03:06:28;20.33;;;12.60;;
18455;SDS011;9357;49.900;8.208;2024-03-22T03:07:59;19.13;;;11.85;;
18455;SDS011;9357;49.900;8.208;2024-03-22T03:09:32;20.23;;;11.13;;
18455;SDS011;9357;49.900;8.208;2024-03-22T03:11:03;19.25;;;12.30;;
18455;SDS011;9357;49.900;8.208;2024-03-22T03:12:34;19.50;;;11.87;;
18455;SDS011;9357;49.900;8.208;2024-03-22T03:14:06;21.15;;;12.55;;
18455;SDS011;9357;49.900;8.208;2024-03-22T03:15:36;21.20;;;12.53;;
18455;SDS011;9357;49.900;8.208;2024-03-22T03:17:07;19.63;;;12.50;;
18455;SDS011;9357;49.900;8.208;2024-03-22T03:18:39;17.85;;;11.93;;
18455;SDS011;9357;49.900;8.208;2024-03-22T03:20:11;20.03;;;11.83;;
18455;SDS011;9357;49.900;8.208;2024-03-22T03:21:43;18.80;;;11.37;;
18455;SDS011;9357;49.900;8.208;2024-03-22T03:23:15;20.40;;;12.40;;
18455;SDS011;9357;49.900;8.208;2024-03-22T03:24:47;18.20;;;11.33;;
18455;SDS011;9357;49.900;8.208;2024-03-22T03:26:18;18.60;;;11.88;;
18455;SDS011;9357;49.900;8.208;2024-03-22T03:27:50;20.00;;;12.20;;
18455;SDS011;9357;49.900;8.208;2024-03-22T03:29:21;18.80;;;11.30;;
18455;SDS011;9357;49.900;8.208;2024-03-22T03:30:53;21.23;;;12.23;;
18455;SDS011;9357;49.900;8.208;2024-03-22T03:32:24;19.20;;;11.83;;
18455;SDS011;9357;49.900;8.208;2024-03-22T03:33:56;20.00;;;11.53;;
18455;SDS011;9357;49.900;8.208;2024-03-22T03:35:27;19.97;;;11.80;;
18455;SDS011;9357;49.900;8.208;2024-03-22T03:36:59;19.83;;;11.77;;
18455;SDS011;9357;49.900;8.208;2024-03-22T03:38:31;17.77;;;11.00;;
18455;SDS011;9357;49.900;8.208;2024-03-22T03:40:04;22.77;;;12.70;;
18455;SDS011;9357;49.900;8.208;2024-03-22T03:41:36;18.60;;;11.20;;
18455;SDS011;9357;49.900;8.208;2024-03-22T03:43:08;21.93;;;11.80;;
18455;SDS011;9357;49.900;8.208;2024-03-22T03:44:39;18.00;;;11.40;;
18455;SDS011;9357;49.900;8.208;2024-03-22T03:46:11;18.43;;;11.27;;
18455;SDS011;9357;49.900;8.208;2024-03-22T03:47:42;17.73;;;11.33;;
18455;SDS011;9357;49.900;8.208;2024-03-22T03:49:14;18.73;;;11.47;;
18455;SDS011;9357;49.900;8.208;2024-03-22T03:50:50;19.87;;;11.23;;
18455;SDS011;9357;49.900;8.208;2024-03-22T03:52:22;19.40;;;11.57;;
18455;SDS011;9357;49.900;8.208;2024-03-22T03:53:54;17.77;;;10.63;;
18455;SDS011;9357;49.900;8.208;2024-03-22T03:55:26;16.43;;;10.30;;
18455;SDS011;9357;49.900;8.208;2024-03-22T03:56:57;14.87;;;10.37;;
18455;SDS011;9357;49.900;8.208;2024-03-22T03:58:29;16.92;;;10.45;;
18455;SDS011;9357;49.900;8.208;2024-03-22T04:00:00;19.87;;;11.00;;
18455;SDS011;9357;49.900;8.208;2024-03-22T04:01:30;18.90;;;10.43;;
18455;SDS011;9357;49.900;8.208;2024-03-22T04:03:02;18.07;;;10.97;;
18455;SDS011;9357;49.900;8.208;2024-03-22T04:04:34;19.47;;;11.87;;
18455;SDS011;9357;49.900;8.208;2024-03-22T04:06:05;16.77;;;10.88;;
18455;SDS011;9357;49.900;8.208;2024-03-22T04:07:37;16.43;;;10.47;;
18455;SDS011;9357;49.900;8.208;2024-03-22T04:09:09;17.97;;;10.40;;
18455;SDS011;9357;49.900;8.208;2024-03-22T04:10:42;17.30;;;10.37;;
18455;SDS011;9357;49.900;8.208;2024-03-22T04:12:22;17.87;;;10.63;;
18455;SDS011;9357;49.900;8.208;2024-03-22T04:13:53;16.90;;;9.83;;
18455;SDS011;9357;49.900;8.208;2024-03-22T04:15:24;17.20;;;10.57;;
18455;SDS011;9357;49.900;8.208;2024-03-22T04:16:56;17.53;;;10.33;;
18455;SDS011;9357;49.900;8.208;2024-03-22T04:18:27;15.87;;;9.53;;
18455;SDS011;9357;49.900;8.208;2024-03-22T04:19:58;16.47;;;9.70;;
18455;SDS011;9357;49.900;8.208;2024-03-22T04:21:30;16.50;;;9.77;;
18455;SDS011;9357;49.900;8.208;2024-03-22T04:23:01;15.93;;;9.63;;
18455;SDS011;9357;49.900;8.208;2024-03-22T04:24:31;15.70;;;9.37;;
18455;SDS011;9357;49.900;8.208;2024-03-22T04:26:05;15.07;;;9.40;;
18455;SDS011;9357;49.900;8.208;2024-03-22T04:27:36;16.63;;;9.70;;
18455;SDS011;9357;49.900;8.208;2024-03-22T04:29:07;14.67;;;9.27;;
18455;SDS011;9357;49.900;8.208;2024-03-22T04:30:39;15.97;;;9.80;;
18455;SDS011;9357;49.900;8.208;2024-03-22T04:32:10;16.83;;;9.83;;
18455;SDS011;9357;49.900;8.208;2024-03-22T04:33:41;16.97;;;8.97;;
18455;SDS011;9357;49.900;8.208;2024-03-22T04:35:12;16.07;;;9.70;;
18455;SDS011;9357;49.900;8.208;2024-03-22T04:36:43;15.20;;;9.33;;
18455;SDS011;9357;49.900;8.208;2024-03-22T04:38:15;16.67;;;9.47;;
18455;SDS011;9357;49.900;8.208;2024-03-22T04:39:47;15.13;;;8.63;;
18455;SDS011;9357;49.900;8.208;2024-03-22T04:41:19;17.23;;;9.73;;
18455;SDS011;9357;49.900;8.208;2024-03-22T04:42:51;14.57;;;9.37;;
18455;SDS011;9357;49.900;8.208;2024-03-22T04:44:22;16.00;;;9.43;;
18455;SDS011;9357;49.900;8.208;2024-03-22T04:45:55;13.17;;;8.87;;
18455;SDS011;9357;49.900;8.208;2024-03-22T04:47:26;14.50;;;8.73;;
18455;SDS011;9357;49.900;8.208;2024-03-22T04:48:57;16.30;;;9.13;;
18455;SDS011;9357;49.900;8.208;2024-03-22T04:50:29;16.90;;;9.20;;
18455;SDS011;9357;49.900;8.208;2024-03-22T04:51:59;15.50;;;9.73;;
18455;SDS011;9357;49.900;8.208;2024-03-22T04:53:32;15.83;;;9.10;;
18455;SDS011;9357;49.900;8.208;2024-03-22T04:55:03;15.13;;;8.77;;
18455;SDS011;9357;49.900;8.208;2024-03-22T04:56:36;12.53;;;8.83;;
18455;SDS011;9357;49.900;8.208;2024-03-22T04:58:07;14.73;;;9.30;;
18455;SDS011;9357;49.900;8.208;2024-03-22T04:59:38;17.33;;;8.53;;
18455;SDS011;9357;49.900;8.208;2024-03-22T05:01:09;13.20;;;8.97;;
18455;SDS011;9357;49.900;8.208;2024-03-22T05:02:42;12.17;;;8.70;;
18455;SDS011;9357;49.900;8.208;2024-03-22T05:04:13;14.27;;;8.93;;
18455;SDS011;9357;49.900;8.208;2024-03-22T05:05:44;12.60;;;8.53;;
18455;SDS011;9357;49.900;8.208;2024-03-22T05:07:16;14.63;;;9.20;;
18455;SDS011;9357;49.900;8.208;2024-03-22T05:08:47;17.07;;;9.67;;
18455;SDS011;9357;49.900;8.208;2024-03-22T05:10:18;14.63;;;9.23;;
18455;SDS011;9357;49.900;8.208;2024-03-22T05:11:51;15.13;;;9.57;;
18455;SDS011;9357;49.900;8.208;2024-03-22T05:13:22;12.27;;;8.70;;
18455;SDS011;9357;49.900;8.208;2024-03-22T05:14:54;14.97;;;9.10;;
18455;SDS011;9357;49.900;8.208;2024-03-22T05:16:25;13.60;;;8.80;;
18455;SDS011;9357;49.900;8.208;2024-03-22T05:17:56;16.50;;;9.17;;
18455;SDS011;9357;49.900;8.208;2024-03-22T05:19:29;15.27;;;9.50;;
18455;SDS011;9357;49.900;8.208;2024-03-22T05:21:00;14.93;;;9.57;;
18455;SDS011;9357;49.900;8.208;2024-03-22T05:22:32;14.10;;;8.93;;
18455;SDS011;9357;49.900;8.208;2024-03-22T05:24:03;13.57;;;8.70;;
18455;SDS011;9357;49.900;8.208;2024-03-22T05:25:34;15.13;;;8.83;;
18455;SDS011;9357;49.900;8.208;2024-03-22T05:27:07;14.70;;;9.27;;
18455;SDS011;9357;49.900;8.208;2024-03-22T05:28:38;15.17;;;9.10;;
18455;SDS011;9357;49.900;8.208;2024-03-22T05:30:10;13.80;;;8.87;;
18455;SDS011;9357;49.900;8.208;2024-03-22T05:31:45;13.27;;;8.63;;
18455;SDS011;9357;49.900;8.208;2024-03-22T05:33:17;13.90;;;8.80;;
18455;SDS011;9357;49.900;8.208;2024-03-22T05:34:48;16.03;;;8.60;;
18455;SDS011;9357;49.900;8.208;2024-03-22T05:36:19;15.17;;;8.97;;
18455;SDS011;9357;49.900;8.208;2024-03-22T05:37:50;13.73;;;8.27;;
18455;SDS011;9357;49.900;8.208;2024-03-22T05:39:22;13.90;;;8.30;;
18455;SDS011;9357;49.900;8.208;2024-03-22T05:40:53;13.07;;;8.30;;
18455;SDS011;9357;49.900;8.208;2024-03-22T05:42:25;13.57;;;9.03;;
18455;SDS011;9357;49.900;8.208;2024-03-22T05:43:57;13.47;;;8.00;;
18455;SDS011;9357;49.900;8.208;2024-03-22T05:45:28;13.47;;;8.10;;
18455;SDS011;9357;49.900;8.208;2024-03-22T05:46:59;15.13;;;8.67;;
18455;SDS011;9357;49.900;8.208;2024-03-22T05:48:31;12.13;;;7.73;;
18455;SDS011;9357;49.900;8.208;2024-03-22T05:50:02;13.33;;;8.33;;
18455;SDS011;9357;49.900;8.208;2024-03-22T05:51:33;13.67;;;8.07;;
18455;SDS011;9357;49.900;8.208;2024-03-22T05:53:05;12.40;;;8.20;;
18455;SDS011;9357;49.900;8.208;2024-03-22T05:54:36;12.47;;;7.63;;
18455;SDS011;9357;49.900;8.208;2024-03-22T05:56:07;15.37;;;7.17;;
18455;SDS011;9357;49.900;8.208;2024-03-22T05:57:40;11.57;;;7.33;;
18455;SDS011;9357;49.900;8.208;2024-03-22T05:59:11;10.23;;;7.30;;
18455;SDS011;9357;49.900;8.208;2024-03-22T06:00:42;14.27;;;7.67;;
18455;SDS011;9357;49.900;8.208;2024-03-22T06:02:14;10.60;;;7.07;;
18455;SDS011;9357;49.900;8.208;2024-03-22T06:03:45;10.40;;;7.07;;
18455;SDS011;9357;49.900;8.208;2024-03-22T06:05:16;12.30;;;7.30;;
18455;SDS011;9357;49.900;8.208;2024-03-22T06:06:48;9.53;;;7.13;;
18455;SDS011;9357;49.900;8.208;2024-03-22T06:08:19;10.57;;;6.53;;
18455;SDS011;9357;49.900;8.208;2024-03-22T06:09:51;11.33;;;6.97;;
18455;SDS011;9357;49.900;8.208;2024-03-22T06:11:22;9.90;;;7.10;;
18455;SDS011;9357;49.900;8.208;2024-03-22T06:12:55;13.10;;;7.43;;
18455;SDS011;9357;49.900;8.208;2024-03-22T06:14:26;12.63;;;7.67;;
18455;SDS011;9357;49.900;8.208;2024-03-22T06:15:58;12.53;;;7.20;;
18455;SDS011;9357;49.900;8.208;2024-03-22T06:17:29;12.13;;;7.57;;
18455;SDS011;9357;49.900;8.208;2024-03-22T06:19:00;11.90;;;7.63;;
18455;SDS011;9357;49.900;8.208;2024-03-22T06:20:33;12.43;;;7.43;;
18455;SDS011;9357;49.900;8.208;2024-03-22T06:22:04;11.90;;;7.53;;
18455;SDS011;9357;49.900;8.208;2024-03-22T06:23:35;12.07;;;7.30;;
18455;SDS011;9357;49.900;8.208;2024-03-22T06:25:07;10.97;;;7.20;;
18455;SDS011;9357;49.900;8.208;2024-03-22T06:26:38;10.50;;;7.00;;
18455;SDS011;9357;49.900;8.208;2024-03-22T06:28:11;12.83;;;7.60;;
18455;SDS011;9357;49.900;8.208;2024-03-22T06:29:42;9.23;;;6.70;;
18455;SDS011;9357;49.900;8.208;2024-03-22T06:31:14;12.27;;;7.70;;
18455;SDS011;9357;49.900;8.208;2024-03-22T06:32:45;10.93;;;7.07;;
18455;SDS011;9357;49.900;8.208;2024-03-22T06:34:15;10.87;;;6.70;;
18455;SDS011;9357;49.900;8.208;2024-03-22T06:35:47;9.07;;;6.33;;
18455;SDS011;9357;49.900;8.208;2024-03-22T06:37:18;10.13;;;6.70;;
18455;SDS011;9357;49.900;8.208;2024-03-22T06:38:49;10.83;;;6.83;;
18455;SDS011;9357;49.900;8.208;2024-03-22T06:40:21;11.47;;;6.87;;
18455;SDS011;9357;49.900;8.208;2024-03-22T06:41:52;8.17;;;5.80;;
18455;SDS011;9357;49.900;8.208;2024-03-22T06:43:24;11.30;;;6.80;;
18455;SDS011;9357;49.900;8.208;2024-03-22T06:44:56;9.47;;;6.10;;
18455;SDS011;9357;49.900;8.208;2024-03-22T06:46:27;9.17;;;6.70;;
18455;SDS011;9357;49.900;8.208;2024-03-22T06:47:58;10.20;;;6.70;;
18455;SDS011;9357;49.900;8.208;2024-03-22T06:49:30;9.43;;;6.53;;
18455;SDS011;9357;49.900;8.208;2024-03-22T06:51:00;10.00;;;6.90;;
18455;SDS011;9357;49.900;8.208;2024-03-22T06:52:31;10.73;;;6.57;;
18455;SDS011;9357;49.900;8.208;2024-03-22T06:54:03;10.47;;;6.70;;
18455;SDS011;9357;49.900;8.208;2024-03-22T06:55:34;12.73;;;7.20;;
18455;SDS011;9357;49.900;8.208;2024-03-22T06:57:06;9.93;;;6.63;;
18455;SDS011;9357;49.900;8.208;2024-03-22T06:58:38;10.40;;;6.50;;
18455;SDS011;9357;49.900;8.208;2024-03-22T07:00:11;11.03;;;6.77;;
18455;SDS011;9357;49.900;8.208;2024-03-22T07:01:43;9.83;;;6.60;;
18455;SDS011;9357;49.900;8.208;2024-03-22T07:03:15;12.47;;;7.40;;
18455;SDS011;9357;49.900;8.208;2024-03-22T07:04:47;9.73;;;7.00;;
18455;SDS011;9357;49.900;8.208;2024-03-22T07:06:18;8.93;;;6.40;;
18455;SDS011;9357;49.900;8.208;2024-03-22T07:07:50;11.10;;;6.70;;
18455;SDS011;9357;49.900;8.208;2024-03-22T07:09:23;11.10;;;6.70;;
18455;SDS011;9357;49.900;8.208;2024-03-22T07:10:58;11.30;;;6.90;;
18455;SDS011;9357;49.900;8.208;2024-03-22T07:12:29;10.57;;;6.97;;
18455;SDS011;9357;49.900;8.208;2024-03-22T07:14:03;9.60;;;6.90;;
18455;SDS011;9357;49.900;8.208;2024-03-22T07:15:34;9.40;;;6.67;;
18455;SDS011;9357;49.900;8.208;2024-03-22T07:17:06;9.13;;;6.27;;
18455;SDS011;9357;49.900;8.208;2024-03-22T07:18:37;10.40;;;6.43;;
18455;SDS011;9357;49.900;8.208;2024-03-22T07:20:08;9.90;;;6.23;;
18455;SDS011;9357;49.900;8.208;2024-03-22T07:21:41;10.73;;;6.67;;
18455;SDS011;9357;49.900;8.208;2024-03-22T07:23:11;9.30;;;5.80;;
18455;SDS011;9357;49.900;8.208;2024-03-22T07:24:43;8.37;;;6.00;;
18455;SDS011;9357;49.900;8.208;2024-03-22T07:26:15;10.13;;;6.23;;
18455;SDS011;9357;49.900;8.208;2024-03-22T07:27:46;8.20;;;6.27;;
18455;SDS011;9357;49.900;8.208;2024-03-22T07:29:20;11.03;;;6.37;;
18455;SDS011;9357;49.900;8.208;2024-03-22T07:30:51;8.87;;;6.27;;
18455;SDS011;9357;49.900;8.208;2024-03-22T07:32:22;9.93;;;6.27;;
18455;SDS011;9357;49.900;8.208;2024-03-22T07:33:54;8.13;;;5.93;;
18455;SDS011;9357;49.900;8.208;2024-03-22T07:35:25;8.73;;;6.17;;
18455;SDS011;9357;49.900;8.208;2024-03-22T07:36:57;7.30;;;5.57;;
18455;SDS011;9357;49.900;8.208;2024-03-22T07:38:28;9.77;;;6.30;;
18455;SDS011;9357;49.900;8.208;2024-03-22T07:39:59;8.20;;;5.53;;
18455;SDS011;9357;49.900;8.208;2024-03-22T07:41:31;9.67;;;6.00;;
18455;SDS011;9357;49.900;8.208;2024-03-22T07:43:02;8.40;;;5.90;;
18455;SDS011;9357;49.900;8.208;2024-03-22T07:44:37;9.90;;;5.70;;
18455;SDS011;9357;49.900;8.208;2024-03-22T07:46:09;8.17;;;5.97;;
18455;SDS011;9357;49.900;8.208;2024-03-22T07:47:40;8.60;;;6.00;;
18455;SDS011;9357;49.900;8.208;2024-03-22T07:49:12;9.40;;;6.17;;
18455;SDS011;9357;49.900;8.208;2024-03-22T07:50:44;7.90;;;5.70;;
18455;SDS011;9357;49.900;8.208;2024-03-22T07:52:15;10.20;;;5.77;;
18455;SDS011;9357;49.900;8.208;2024-03-22T07:53:46;8.97;;;5.93;;
18455;SDS011;9357;49.900;8.208;2024-03-22T07:55:18;8.77;;;5.60;;
18455;SDS011;9357;49.900;8.208;2024-03-22T07:56:49;8.50;;;5.87;;
18455;SDS011;9357;49.900;8.208;2024-03-22T07:58:21;8.40;;;5.63;;
18455;SDS011;9357;49.900;8.208;2024-03-22T07:59:53;8.37;;;4.97;;
18455;SDS011;9357;49.900;8.208;2024-03-22T08:01:24;8.40;;;5.13;;
18455;SDS011;9357;49.900;8.208;2024-03-22T08:02:56;9.37;;;5.43;;
18455;SDS011;9357;49.900;8.208;2024-03-22T08:04:26;8.47;;;5.13;;
18455;SDS011;9357;49.900;8.208;2024-03-22T08:05:58;7.13;;;5.10;;
18455;SDS011;9357;49.900;8.208;2024-03-22T08:07:30;7.67;;;4.83;;
18455;SDS011;9357;49.900;8.208;2024-03-22T08:09:01;8.43;;;5.57;;
18455;SDS011;9357;49.900;8.208;2024-03-22T08:10:33;7.70;;;5.77;;
18455;SDS011;9357;49.900;8.208;2024-03-22T08:12:05;5.63;;;4.70;;
18455;SDS011;9357;49.900;8.208;2024-03-22T08:13:37;7.20;;;5.17;;
18455;SDS011;9357;49.900;8.208;2024-03-22T08:15:10;6.50;;;4.90;;
18455;SDS011;9357;49.900;8.208;2024-03-22T08:16:42;7.60;;;5.03;;
18455;SDS011;9357;49.900;8.208;2024-03-22T08:18:13;6.60;;;5.13;;
18455;SDS011;9357;49.900;8.208;2024-03-22T08:19:44;7.20;;;5.30;;
18455;SDS011;9357;49.900;8.208;2024-03-22T08:21:15;8.30;;;5.60;;
18455;SDS011;9357;49.900;8.208;2024-03-22T08:22:46;8.50;;;5.70;;
18455;SDS011;9357;49.900;8.208;2024-03-22T08:24:18;5.43;;;4.83;;
18455;SDS011;9357;49.900;8.208;2024-03-22T08:25:49;7.63;;;5.23;;
18455;SDS011;9357;49.900;8.208;2024-03-22T08:27:20;7.17;;;5.37;;
18455;SDS011;9357;49.900;8.208;2024-03-22T08:28:52;7.23;;;5.23;;
18455;SDS011;9357;49.900;8.208;2024-03-22T08:30:24;8.33;;;5.47;;
18455;SDS011;9357;49.900;8.208;2024-03-22T08:31:56;7.73;;;5.37;;
18455;SDS011;9357;49.900;8.208;2024-03-22T08:33:27;7.07;;;5.60;;
18455;SDS011;9357;49.900;8.208;2024-03-22T08:34:58;8.07;;;5.97;;
18455;SDS011;9357;49.900;8.208;2024-03-22T08:36:29;8.83;;;5.77;;
18455;SDS011;9357;49.900;8.208;2024-03-22T08:38:00;8.00;;;5.17;;
18455;SDS011;9357;49.900;8.208;2024-03-22T08:39:31;10.77;;;6.00;;
18455;SDS011;9357;49.900;8.208;2024-03-22T08:41:03;9.70;;;6.50;;
18455;SDS011;9357;49.900;8.208;2024-03-22T08:42:34;9.17;;;6.57;;
18455;SDS011;9357;49.900;8.208;2024-03-22T08:44:06;9.33;;;5.57;;
18455;SDS011;9357;49.900;8.208;2024-03-22T08:45:38;8.13;;;6.00;;
18455;SDS011;9357;49.900;8.208;2024-03-22T08:47:09;8.93;;;5.93;;
18455;SDS011;9357;49.900;8.208;2024-03-22T08:48:42;10.60;;;5.83;;
18455;SDS011;9357;49.900;8.208;2024-03-22T08:50:13;8.43;;;5.50;;
18455;SDS011;9357;49.900;8.208;2024-03-22T08:51:44;8.80;;;5.73;;
18455;SDS011;9357;49.900;8.208;2024-03-22T08:53:18;9.30;;;5.83;;
18455;SDS011;9357;49.900;8.208;2024-03-22T08:54:49;8.60;;;5.57;;
18455;SDS011;9357;49.900;8.208;2024-03-22T08:56:21;7.97;;;5.90;;
18455;SDS011;9357;49.900;8.208;2024-03-22T08:57:52;8.33;;;6.30;;
18455;SDS011;9357;49.900;8.208;2024-03-22T08:59:23;8.80;;;5.50;;
18455;SDS011;9357;49.900;8.208;2024-03-22T09:00:56;8.50;;;5.60;;
18455;SDS011;9357;49.900;8.208;2024-03-22T09:02:27;9.77;;;6.30;;
18455;SDS011;9357;49.900;8.208;2024-03-22T09:03:58;7.93;;;6.00;;
18455;SDS011;9357;49.900;8.208;2024-03-22T09:05:29;8.50;;;6.10;;
18455;SDS011;9357;49.900;8.208;2024-03-22T09:07:00;7.30;;;5.73;;
18455;SDS011;9357;49.900;8.208;2024-03-22T09:08:32;8.50;;;6.00;;
18455;SDS011;9357;49.900;8.208;2024-03-22T09:10:04;7.83;;;5.47;;